createdAt,value
2022-08-17T00:01:15.038Z,14.77
2022-08-17T00:05:03.018Z,17.48
2022-08-17T00:09:02.966Z,15.07
2022-08-17T00:13:01.972Z,16.60
2022-08-17T00:16:57.701Z,15.63
2022-08-17T00:20:36.079Z,16.35
2022-08-17T00:24:27.989Z,18.67
2022-08-17T00:28:13.015Z,15.02
2022-08-17T00:31:58.323Z,16.92
2022-08-17T00:35:51.982Z,15.33
2022-08-17T00:39:37.069Z,18.30
2022-08-17T00:43:48.997Z,16.42
2022-08-17T00:47:27.360Z,17.35
2022-08-17T00:51:25.006Z,18.38
2022-08-17T00:55:11.994Z,19.70
2022-08-17T00:59:06.029Z,21.70
2022-08-17T01:02:46.562Z,20.52
2022-08-17T01:06:38.995Z,22.90
2022-08-17T01:11:00.423Z,19.13
2022-08-17T01:14:29.991Z,22.15
2022-08-17T01:18:14.996Z,22.52
2022-08-17T01:22:09.092Z,22.95
2022-08-17T01:26:01.796Z,19.38
2022-08-17T01:29:50.027Z,31.80
2022-08-17T01:33:43.056Z,23.48
2022-08-17T01:37:35.977Z,21.52
2022-08-17T01:41:23.087Z,24.00
2022-08-17T01:45:16.043Z,21.63
2022-08-17T01:49:10.093Z,19.52
2022-08-17T01:52:58.024Z,25.30
2022-08-17T01:56:47.203Z,24.25
2022-08-17T02:00:59.622Z,20.57
2022-08-17T02:04:46.204Z,23.20
2022-08-17T02:09:01.773Z,23.95
2022-08-17T02:12:55.018Z,23.58
2022-08-17T02:16:37.012Z,25.80
2022-08-17T02:20:41.644Z,24.23
2022-08-17T02:24:58.271Z,22.37
2022-08-17T02:28:41.035Z,22.90
2022-08-17T02:32:33.026Z,24.67
2022-08-17T02:36:12.120Z,29.88
2022-08-17T02:40:05.136Z,34.03
2022-08-17T02:43:50.064Z,24.53
2022-08-17T02:47:49.052Z,26.35
2022-08-17T02:51:48.045Z,26.17
2022-08-17T02:55:43.081Z,29.63
2022-08-17T02:59:28.053Z,23.33
2022-08-17T03:03:28.079Z,31.83
2022-08-17T03:07:27.058Z,27.48
2022-08-17T03:11:19.058Z,28.10
2022-08-17T03:14:57.124Z,27.97
2022-08-17T03:18:49.078Z,24.47
2022-08-17T03:22:37.051Z,25.80
2022-08-17T03:26:30.063Z,31.00
2022-08-17T03:30:10.329Z,30.20
2022-08-17T03:34:03.063Z,32.07
2022-08-17T03:37:48.071Z,30.95
2022-08-17T03:41:59.073Z,24.92
2022-08-17T03:46:27.273Z,26.80
2022-08-17T03:50:26.127Z,26.33
2022-08-17T03:54:37.054Z,27.88
2022-08-17T03:58:22.090Z,27.65
2022-08-17T04:02:27.087Z,28.27
2022-08-17T04:06:26.074Z,30.00
2022-08-17T04:10:18.110Z,30.00
2022-08-17T04:14:03.075Z,35.15
2022-08-17T04:17:48.695Z,33.95
2022-08-17T04:21:40.088Z,30.38
2022-08-17T04:25:25.148Z,37.40
2022-08-17T04:29:17.118Z,33.10
2022-08-17T04:33:03.989Z,34.30
2022-08-17T04:36:59.139Z,32.78
2022-08-17T04:41:03.125Z,34.90
2022-08-17T04:44:48.212Z,38.00
2022-08-17T04:48:38.122Z,38.05
2022-08-17T04:52:42.695Z,39.55
2022-08-17T04:56:31.113Z,33.67
2022-08-17T05:00:24.140Z,29.83
2022-08-17T05:04:32.172Z,28.03
2022-08-17T05:08:25.204Z,31.83
2022-08-17T05:12:24.112Z,29.42
2022-08-17T05:16:16.145Z,34.25
2022-08-17T05:19:54.260Z,28.43
2022-08-17T05:23:50.275Z,26.98
2022-08-17T05:27:35.947Z,30.48
2022-08-17T05:31:28.114Z,22.08
2022-08-17T05:35:13.124Z,20.37
2022-08-17T05:39:05.127Z,22.23
2022-08-17T05:42:43.397Z,21.17
2022-08-17T05:46:41.193Z,24.25
2022-08-17T05:51:01.128Z,21.08
2022-08-17T05:55:19.198Z,18.87
2022-08-17T05:59:09.246Z,20.03
2022-08-17T06:03:23.124Z,17.25
2022-08-17T06:07:34.170Z,22.83
2022-08-17T06:11:23.133Z,21.10
2022-08-17T06:15:33.171Z,21.70
2022-08-17T06:19:43.177Z,16.90
2022-08-17T06:23:44.172Z,15.63
2022-08-17T06:27:38.165Z,18.10
2022-08-17T06:31:29.317Z,15.23
2022-08-17T06:35:16.163Z,14.82
2022-08-17T06:39:33.188Z,17.33
2022-08-17T06:43:27.936Z,17.30
2022-08-17T06:47:28.815Z,15.67
2022-08-17T06:51:20.306Z,15.13
2022-08-17T06:55:18.891Z,14.38
2022-08-17T06:58:59.889Z,14.27
2022-08-17T07:02:53.394Z,13.03
2022-08-17T07:06:49.176Z,14.45
2022-08-17T07:10:38.287Z,15.88
2022-08-17T07:14:38.209Z,13.95
2022-08-17T07:18:17.304Z,13.70
2022-08-17T07:22:24.303Z,12.48
2022-08-17T07:26:20.217Z,12.77
2022-08-17T07:30:19.190Z,12.82
2022-08-17T07:34:17.189Z,12.93
2022-08-17T07:38:29.273Z,12.38
2022-08-17T07:42:21.251Z,14.32
2022-08-17T07:46:42.202Z,16.47
2022-08-17T07:50:42.212Z,12.63
2022-08-17T07:54:43.194Z,13.05
2022-08-17T07:58:36.221Z,16.88
2022-08-17T08:02:37.254Z,15.03
2022-08-17T08:06:29.292Z,13.75
2022-08-17T08:10:33.228Z,14.30
2022-08-17T08:14:46.208Z,12.17
2022-08-17T08:18:54.192Z,11.32
2022-08-17T08:23:09.345Z,10.73
2022-08-17T08:27:07.261Z,12.52
2022-08-17T08:31:07.272Z,14.13
2022-08-17T08:35:09.346Z,14.38
2022-08-17T08:39:10.364Z,11.70
2022-08-17T08:43:15.260Z,12.27
2022-08-17T08:47:25.288Z,13.52
2022-08-17T08:51:21.331Z,11.20
2022-08-17T08:55:19.382Z,12.40
2022-08-17T08:59:30.275Z,10.90
2022-08-17T09:03:53.250Z,10.30
2022-08-17T09:08:06.355Z,11.40
2022-08-17T09:12:12.237Z,10.97
2022-08-17T09:16:05.268Z,11.60
2022-08-17T09:19:55.416Z,10.13
2022-08-17T09:24:09.267Z,11.13
2022-08-17T09:28:12.280Z,10.27
2022-08-17T09:32:02.264Z,11.35
2022-08-17T09:35:56.355Z,11.57
2022-08-17T09:39:57.347Z,10.73
2022-08-17T09:43:55.270Z,13.02
2022-08-17T09:47:53.385Z,10.10
2022-08-17T09:51:58.449Z,9.97
2022-08-17T09:55:49.288Z,9.10
2022-08-17T10:00:09.290Z,10.00
2022-08-17T10:04:11.299Z,9.40
2022-08-17T10:08:09.274Z,8.93
2022-08-17T10:12:23.323Z,9.52
2022-08-17T10:16:27.314Z,10.70
2022-08-17T10:20:53.434Z,11.10
2022-08-17T10:25:24.206Z,14.30
2022-08-17T10:29:17.314Z,8.10
2022-08-17T10:33:11.324Z,8.07
2022-08-17T10:37:27.386Z,9.77
2022-08-17T10:41:24.494Z,9.80
2022-08-17T10:45:34.322Z,10.57
2022-08-17T10:49:31.336Z,8.57
2022-08-17T10:53:38.347Z,8.07
2022-08-17T10:57:40.317Z,9.07
2022-08-17T11:01:41.362Z,8.43
2022-08-17T11:06:00.356Z,9.43
2022-08-17T11:10:57.347Z,8.68
2022-08-17T11:15:10.418Z,8.70
2022-08-17T11:19:35.461Z,7.68
2022-08-17T11:23:42.334Z,8.23
2022-08-17T11:27:45.349Z,7.43
2022-08-17T11:31:42.371Z,7.40
2022-08-17T11:35:36.366Z,7.38
2022-08-17T11:39:44.439Z,9.87
2022-08-17T11:43:50.392Z,8.40
2022-08-17T11:48:27.914Z,8.45
2022-08-17T11:52:12.369Z,7.75
2022-08-17T11:56:04.360Z,8.20
2022-08-17T11:59:43.788Z,7.43
2022-08-17T12:03:38.381Z,8.70
2022-08-17T12:07:28.373Z,8.63
2022-08-17T12:11:57.833Z,7.88
2022-08-17T12:15:56.379Z,8.43
2022-08-17T12:19:35.479Z,8.93
2022-08-17T12:23:37.394Z,8.98
2022-08-17T12:27:17.458Z,9.52
2022-08-17T12:31:42.398Z,9.70
2022-08-17T12:35:46.416Z,8.93
2022-08-17T12:39:33.969Z,9.20
2022-08-17T12:43:39.402Z,10.23
2022-08-17T12:47:25.402Z,10.97
2022-08-17T12:51:21.413Z,9.55
2022-08-17T12:55:19.432Z,8.35
2022-08-17T12:59:04.451Z,9.30
2022-08-17T13:02:53.424Z,11.85
2022-08-17T13:06:48.494Z,8.27
2022-08-17T13:10:34.575Z,7.47
2022-08-17T13:14:26.464Z,8.20
2022-08-17T13:18:16.457Z,9.57
2022-08-17T13:22:12.434Z,8.32
2022-08-17T13:25:55.204Z,7.53
2022-08-17T13:29:52.992Z,10.43
2022-08-17T13:38:11.308Z,9.17
2022-08-17T13:42:13.600Z,8.70
2022-08-17T13:46:16.329Z,8.50
2022-08-17T13:50:02.376Z,9.68
2022-08-17T13:53:59.381Z,9.37
2022-08-17T13:57:38.424Z,8.95
2022-08-17T14:01:41.447Z,10.70
2022-08-17T14:05:26.341Z,9.77
2022-08-17T14:09:25.374Z,9.13
2022-08-17T14:13:17.382Z,9.90
2022-08-17T14:17:04.361Z,9.13
2022-08-17T14:20:56.372Z,9.50
2022-08-17T14:24:45.384Z,10.00
2022-08-17T14:28:37.361Z,8.18
2022-08-17T14:32:42.341Z,9.23
2022-08-17T14:36:41.386Z,9.77
2022-08-17T14:40:41.347Z,10.18
2022-08-17T14:44:27.373Z,9.43
2022-08-17T14:48:19.363Z,8.43
2022-08-17T14:52:05.359Z,8.73
2022-08-17T14:55:58.434Z,8.13
2022-08-17T14:59:44.373Z,8.82
2022-08-17T15:03:37.378Z,7.80
2022-08-17T15:07:22.365Z,8.00
2022-08-17T15:11:15.773Z,6.70
2022-08-17T15:15:07.387Z,9.68
2022-08-17T15:18:52.384Z,9.35
2022-08-17T15:22:44.390Z,10.23
2022-08-17T15:26:26.207Z,9.20
2022-08-17T15:30:20.393Z,8.93
2022-08-17T15:34:05.400Z,7.77
2022-08-17T15:37:59.374Z,10.57
2022-08-17T15:42:00.404Z,7.57
2022-08-17T15:45:38.439Z,8.52
2022-08-17T15:49:30.392Z,9.00
2022-08-17T15:53:16.402Z,8.57
2022-08-17T15:57:15.396Z,7.43
2022-08-17T16:01:16.511Z,7.97
2022-08-17T16:05:04.464Z,9.68
2022-08-17T16:09:01.560Z,7.70
2022-08-17T16:12:40.549Z,7.97
2022-08-17T16:16:32.413Z,8.13
2022-08-17T16:20:19.987Z,10.10
2022-08-17T16:24:21.415Z,7.15
2022-08-17T16:28:13.435Z,7.67
2022-08-17T16:31:59.447Z,10.50
2022-08-17T16:35:51.406Z,8.30
2022-08-17T16:39:34.322Z,8.63
2022-08-17T16:43:26.417Z,7.93
2022-08-17T16:47:13.449Z,8.75
2022-08-17T16:51:12.451Z,7.97
2022-08-17T16:55:06.441Z,6.83
2022-08-17T16:58:51.449Z,7.72
2022-08-17T17:02:50.600Z,11.05
2022-08-17T17:06:40.925Z,11.18
2022-08-17T17:10:43.464Z,9.47
2022-08-17T17:14:49.434Z,10.27
2022-08-17T17:18:59.471Z,7.70
2022-08-17T17:22:54.085Z,10.93
2022-08-17T17:27:20.460Z,9.20
2022-08-17T17:31:30.471Z,10.38
2022-08-17T17:35:30.455Z,9.85
2022-08-17T17:39:48.516Z,8.63
2022-08-17T17:43:41.046Z,10.20
2022-08-17T17:47:29.528Z,8.85
2022-08-17T17:51:55.027Z,9.85
2022-08-17T17:56:18.744Z,10.57
2022-08-17T18:00:33.506Z,14.30
2022-08-17T18:04:47.476Z,9.20
2022-08-17T18:08:41.455Z,12.32
2022-08-17T18:13:02.500Z,11.75
2022-08-17T18:17:00.507Z,10.82
2022-08-17T18:20:53.214Z,10.80
2022-08-17T18:24:48.607Z,9.60
2022-08-17T18:28:45.497Z,9.52
2022-08-17T18:32:47.517Z,12.00
2022-08-17T18:36:41.586Z,12.73
2022-08-17T18:40:38.499Z,13.60
2022-08-17T18:44:39.499Z,16.42
2022-08-17T18:48:39.545Z,15.48
2022-08-17T18:52:23.732Z,10.93
2022-08-17T18:56:33.514Z,14.43
2022-08-17T19:00:55.546Z,11.87
2022-08-17T19:05:07.524Z,10.57
2022-08-17T19:08:59.542Z,11.73
2022-08-17T19:13:24.349Z,11.40
2022-08-17T19:17:22.517Z,11.33
2022-08-17T19:21:12.928Z,11.57
2022-08-17T19:25:17.568Z,13.43
2022-08-17T19:29:08.683Z,12.90
2022-08-17T19:33:09.517Z,13.23
2022-08-17T19:37:02.472Z,14.73
2022-08-17T19:41:04.687Z,13.97
2022-08-17T19:44:53.563Z,12.65
2022-08-17T19:49:02.634Z,11.82
2022-08-17T19:52:47.543Z,12.07
2022-08-17T19:57:03.601Z,11.40
2022-08-17T20:00:55.589Z,10.80
2022-08-17T20:04:54.561Z,9.43
2022-08-17T20:08:46.566Z,11.73
2022-08-17T20:12:38.015Z,11.70
2022-08-17T20:16:24.573Z,12.37
2022-08-17T20:20:34.579Z,11.90
2022-08-17T20:24:32.558Z,12.20
2022-08-17T20:29:15.593Z,11.70
2022-08-17T20:32:58.142Z,10.85
2022-08-17T20:37:09.675Z,13.57
2022-08-17T20:41:00.577Z,11.40
2022-08-17T20:44:47.625Z,12.20
2022-08-17T20:48:41.065Z,12.98
2022-08-17T20:53:12.592Z,10.07
2022-08-17T20:56:57.738Z,13.07
2022-08-17T21:01:02.728Z,11.67
2022-08-17T21:04:57.642Z,19.52
2022-08-17T21:08:45.211Z,14.77
2022-08-17T21:12:54.614Z,10.65
2022-08-17T21:17:13.669Z,11.20
2022-08-17T21:21:17.638Z,12.33
2022-08-17T21:25:09.703Z,10.40
2022-08-17T21:29:31.105Z,10.80
2022-08-17T21:33:25.024Z,10.25
2022-08-17T21:37:25.635Z,12.40
2022-08-17T21:41:10.602Z,9.40
2022-08-17T21:45:14.625Z,12.40
2022-08-17T21:49:17.592Z,13.10
2022-08-17T21:53:04.631Z,13.50
2022-08-17T21:56:56.711Z,14.33
2022-08-17T22:00:37.758Z,12.40
2022-08-17T22:04:35.650Z,12.30
2022-08-17T22:08:34.662Z,13.57
2022-08-17T22:12:28.719Z,13.15
2022-08-17T22:16:29.209Z,11.70
2022-08-17T22:20:20.629Z,13.23
2022-08-17T22:24:19.731Z,14.50
2022-08-17T22:28:07.692Z,16.42
2022-08-17T22:32:08.662Z,11.75
2022-08-17T22:35:54.618Z,14.27
2022-08-17T22:39:50.683Z,12.43
2022-08-17T22:43:29.001Z,13.32
2022-08-17T22:47:49.796Z,12.75
2022-08-17T22:51:42.650Z,10.45
2022-08-17T22:55:48.679Z,12.47
2022-08-17T23:00:08.691Z,13.83
2022-08-17T23:04:22.665Z,13.10
2022-08-17T23:08:14.676Z,11.63
2022-08-17T23:12:05.644Z,12.85
2022-08-17T23:15:51.211Z,13.63
2022-08-17T23:19:42.656Z,16.87
2022-08-17T23:23:29.675Z,11.80
2022-08-17T23:27:21.640Z,16.10
2022-08-17T23:31:06.689Z,15.85
2022-08-17T23:34:59.670Z,11.10
2022-08-17T23:38:38.047Z,13.17
2022-08-17T23:42:31.773Z,15.95
2022-08-17T23:46:09.887Z,14.07
2022-08-17T23:50:01.971Z,13.48
2022-08-17T23:53:46.169Z,15.07
2022-08-17T23:57:37.673Z,13.50
